sensor_id;sensor_type;location;lat;lon;timestamp;P1;durP1;ratioP1;P2;durP2;ratioP2
18228;SDS011;9239;50.932;3.142;2023-09-19T00:00:16;5.30;;;1.60;;
18228;SDS011;9239;50.932;3.142;2023-09-19T00:02:45;4.13;;;1.80;;
18228;SDS011;9239;50.932;3.142;2023-09-19T00:05:13;5.03;;;2.30;;
18228;SDS011;9239;50.932;3.142;2023-09-19T00:07:40;5.63;;;1.83;;
18228;SDS011;9239;50.932;3.142;2023-09-19T00:10:07;4.65;;;1.83;;
18228;SDS011;9239;50.932;3.142;2023-09-19T00:12:36;3.70;;;1.83;;
18228;SDS011;9239;50.932;3.142;2023-09-19T00:15:04;11.00;;;2.53;;
18228;SDS011;9239;50.932;3.142;2023-09-19T00:17:32;5.38;;;2.15;;
18228;SDS011;9239;50.932;3.142;2023-09-19T00:19:59;5.88;;;2.08;;
18228;SDS011;9239;50.932;3.142;2023-09-19T00:22:32;6.18;;;2.03;;
18228;SDS011;9239;50.932;3.142;2023-09-19T00:24:59;4.88;;;1.90;;
18228;SDS011;9239;50.932;3.142;2023-09-19T00:27:27;6.32;;;2.38;;
18228;SDS011;9239;50.932;3.142;2023-09-19T00:29:54;8.00;;;2.25;;
18228;SDS011;9239;50.932;3.142;2023-09-19T00:32:23;6.95;;;2.10;;
18228;SDS011;9239;50.932;3.142;2023-09-19T00:34:50;8.73;;;2.42;;
18228;SDS011;9239;50.932;3.142;2023-09-19T00:37:17;6.57;;;2.10;;
18228;SDS011;9239;50.932;3.142;2023-09-19T00:39:44;11.55;;;3.30;;
18228;SDS011;9239;50.932;3.142;2023-09-19T00:42:17;6.10;;;2.20;;
18228;SDS011;9239;50.932;3.142;2023-09-19T00:44:46;5.72;;;2.30;;
18228;SDS011;9239;50.932;3.142;2023-09-19T00:47:16;5.80;;;2.10;;
18228;SDS011;9239;50.932;3.142;2023-09-19T00:49:44;5.90;;;2.70;;
18228;SDS011;9239;50.932;3.142;2023-09-19T00:52:15;6.80;;;2.47;;
18228;SDS011;9239;50.932;3.142;2023-09-19T00:54:44;7.30;;;2.50;;
18228;SDS011;9239;50.932;3.142;2023-09-19T00:57:12;6.07;;;2.15;;
18228;SDS011;9239;50.932;3.142;2023-09-19T00:59:42;9.98;;;2.55;;
18228;SDS011;9239;50.932;3.142;2023-09-19T01:02:09;7.43;;;3.00;;
18228;SDS011;9239;50.932;3.142;2023-09-19T01:04:39;4.57;;;2.00;;
18228;SDS011;9239;50.932;3.142;2023-09-19T01:07:09;10.93;;;2.95;;
18228;SDS011;9239;50.932;3.142;2023-09-19T01:09:36;12.75;;;3.67;;
18228;SDS011;9239;50.932;3.142;2023-09-19T01:12:04;10.23;;;3.13;;
18228;SDS011;9239;50.932;3.142;2023-09-19T01:14:34;4.70;;;2.47;;
18228;SDS011;9239;50.932;3.142;2023-09-19T01:17:09;8.60;;;2.47;;
18228;SDS011;9239;50.932;3.142;2023-09-19T01:19:59;7.72;;;2.90;;
18228;SDS011;9239;50.932;3.142;2023-09-19T01:22:56;8.98;;;3.15;;
18228;SDS011;9239;50.932;3.142;2023-09-19T01:25:42;7.45;;;2.50;;
18228;SDS011;9239;50.932;3.142;2023-09-19T01:28:34;6.82;;;2.72;;
18228;SDS011;9239;50.932;3.142;2023-09-19T01:31:13;10.57;;;2.90;;
18228;SDS011;9239;50.932;3.142;2023-09-19T01:33:53;8.10;;;2.60;;
18228;SDS011;9239;50.932;3.142;2023-09-19T01:36:24;7.15;;;2.10;;
18228;SDS011;9239;50.932;3.142;2023-09-19T01:38:52;5.18;;;2.33;;
18228;SDS011;9239;50.932;3.142;2023-09-19T01:41:21;5.90;;;2.67;;
18228;SDS011;9239;50.932;3.142;2023-09-19T01:43:56;6.43;;;2.60;;
18228;SDS011;9239;50.932;3.142;2023-09-19T01:46:28;5.47;;;1.83;;
18228;SDS011;9239;50.932;3.142;2023-09-19T01:49:02;13.40;;;3.33;;
18228;SDS011;9239;50.932;3.142;2023-09-19T01:51:44;4.07;;;2.10;;
18228;SDS011;9239;50.932;3.142;2023-09-19T01:54:18;8.93;;;2.80;;
18228;SDS011;9239;50.932;3.142;2023-09-19T01:56:54;7.68;;;2.28;;
18228;SDS011;9239;50.932;3.142;2023-09-19T01:59:32;8.70;;;2.75;;
18228;SDS011;9239;50.932;3.142;2023-09-19T02:02:07;9.57;;;2.67;;
18228;SDS011;9239;50.932;3.142;2023-09-19T02:04:35;6.45;;;2.63;;
18228;SDS011;9239;50.932;3.142;2023-09-19T02:07:02;7.35;;;2.80;;
18228;SDS011;9239;50.932;3.142;2023-09-19T02:09:30;7.10;;;2.13;;
18228;SDS011;9239;50.932;3.142;2023-09-19T02:11:59;10.27;;;2.38;;
18228;SDS011;9239;50.932;3.142;2023-09-19T02:14:26;8.65;;;2.67;;
18228;SDS011;9239;50.932;3.142;2023-09-19T02:16:54;8.10;;;2.33;;
18228;SDS011;9239;50.932;3.142;2023-09-19T02:19:23;5.57;;;2.42;;
18228;SDS011;9239;50.932;3.142;2023-09-19T02:21:50;6.25;;;2.40;;
18228;SDS011;9239;50.932;3.142;2023-09-19T02:24:17;5.35;;;2.25;;
18228;SDS011;9239;50.932;3.142;2023-09-19T02:26:45;7.75;;;2.42;;
18228;SDS011;9239;50.932;3.142;2023-09-19T02:29:12;6.05;;;2.30;;
18228;SDS011;9239;50.932;3.142;2023-09-19T02:31:39;8.38;;;2.50;;
18228;SDS011;9239;50.932;3.142;2023-09-19T02:34:08;5.40;;;2.00;;
18228;SDS011;9239;50.932;3.142;2023-09-19T02:36:36;9.02;;;2.50;;
18228;SDS011;9239;50.932;3.142;2023-09-19T02:39:03;7.85;;;2.30;;
18228;SDS011;9239;50.932;3.142;2023-09-19T02:41:33;7.57;;;1.80;;
18228;SDS011;9239;50.932;3.142;2023-09-19T02:44:00;6.32;;;2.03;;
18228;SDS011;9239;50.932;3.142;2023-09-19T02:46:27;7.93;;;2.67;;
18228;SDS011;9239;50.932;3.142;2023-09-19T02:48:55;7.35;;;2.10;;
18228;SDS011;9239;50.932;3.142;2023-09-19T02:51:22;6.63;;;2.67;;
18228;SDS011;9239;50.932;3.142;2023-09-19T02:53:50;7.70;;;2.42;;
18228;SDS011;9239;50.932;3.142;2023-09-19T02:56:19;8.32;;;2.78;;
18228;SDS011;9239;50.932;3.142;2023-09-19T02:58:47;8.35;;;2.53;;
18228;SDS011;9239;50.932;3.142;2023-09-19T03:01:14;5.75;;;2.17;;
18228;SDS011;9239;50.932;3.142;2023-09-19T03:03:41;7.25;;;2.65;;
18228;SDS011;9239;50.932;3.142;2023-09-19T03:06:08;5.47;;;2.13;;
18228;SDS011;9239;50.932;3.142;2023-09-19T03:08:35;8.80;;;2.40;;
18228;SDS011;9239;50.932;3.142;2023-09-19T03:11:06;5.07;;;2.00;;
18228;SDS011;9239;50.932;3.142;2023-09-19T03:13:36;6.57;;;2.00;;
18228;SDS011;9239;50.932;3.142;2023-09-19T03:16:05;7.10;;;2.47;;
18228;SDS011;9239;50.932;3.142;2023-09-19T03:18:31;5.15;;;2.58;;
18228;SDS011;9239;50.932;3.142;2023-09-19T03:21:00;9.90;;;2.17;;
18228;SDS011;9239;50.932;3.142;2023-09-19T03:23:27;9.00;;;2.60;;
18228;SDS011;9239;50.932;3.142;2023-09-19T03:25:55;10.93;;;2.97;;
18228;SDS011;9239;50.932;3.142;2023-09-19T03:28:25;10.57;;;2.88;;
18228;SDS011;9239;50.932;3.142;2023-09-19T03:30:59;8.27;;;2.30;;
18228;SDS011;9239;50.932;3.142;2023-09-19T03:33:27;7.18;;;2.40;;
18228;SDS011;9239;50.932;3.142;2023-09-19T03:35:56;8.65;;;2.47;;
18228;SDS011;9239;50.932;3.142;2023-09-19T03:38:24;11.15;;;3.38;;
18228;SDS011;9239;50.932;3.142;2023-09-19T03:40:51;9.05;;;2.13;;
18228;SDS011;9239;50.932;3.142;2023-09-19T03:43:18;7.20;;;2.45;;
18228;SDS011;9239;50.932;3.142;2023-09-19T03:45:46;10.05;;;2.92;;
18228;SDS011;9239;50.932;3.142;2023-09-19T03:48:14;5.93;;;2.22;;
18228;SDS011;9239;50.932;3.142;2023-09-19T03:50:41;12.20;;;4.07;;
18228;SDS011;9239;50.932;3.142;2023-09-19T03:53:09;8.82;;;2.33;;
18228;SDS011;9239;50.932;3.142;2023-09-19T03:55:36;7.75;;;2.30;;
18228;SDS011;9239;50.932;3.142;2023-09-19T03:58:04;11.50;;;2.78;;
18228;SDS011;9239;50.932;3.142;2023-09-19T04:00:31;7.63;;;2.63;;
18228;SDS011;9239;50.932;3.142;2023-09-19T04:03:01;7.32;;;2.40;;
18228;SDS011;9239;50.932;3.142;2023-09-19T04:05:31;10.25;;;2.65;;
18228;SDS011;9239;50.932;3.142;2023-09-19T04:07:58;5.63;;;2.00;;
18228;SDS011;9239;50.932;3.142;2023-09-19T04:10:25;8.77;;;2.90;;
18228;SDS011;9239;50.932;3.142;2023-09-19T04:12:53;7.53;;;2.50;;
18228;SDS011;9239;50.932;3.142;2023-09-19T04:15:20;8.45;;;2.53;;
18228;SDS011;9239;50.932;3.142;2023-09-19T04:17:48;8.23;;;2.97;;
18228;SDS011;9239;50.932;3.142;2023-09-19T04:20:17;6.22;;;3.10;;
18228;SDS011;9239;50.932;3.142;2023-09-19T04:22:44;9.07;;;3.15;;
18228;SDS011;9239;50.932;3.142;2023-09-19T04:25:12;14.18;;;2.75;;
18228;SDS011;9239;50.932;3.142;2023-09-19T04:27:39;13.10;;;2.55;;
18228;SDS011;9239;50.932;3.142;2023-09-19T04:30:07;8.35;;;3.58;;
18228;SDS011;9239;50.932;3.142;2023-09-19T04:32:37;7.40;;;2.10;;
18228;SDS011;9239;50.932;3.142;2023-09-19T04:35:05;8.75;;;2.75;;
18228;SDS011;9239;50.932;3.142;2023-09-19T04:37:37;8.77;;;2.08;;
18228;SDS011;9239;50.932;3.142;2023-09-19T04:40:06;10.77;;;3.45;;
18228;SDS011;9239;50.932;3.142;2023-09-19T04:42:38;6.03;;;2.70;;
18228;SDS011;9239;50.932;3.142;2023-09-19T04:45:06;10.57;;;3.10;;
18228;SDS011;9239;50.932;3.142;2023-09-19T04:47:34;8.57;;;2.60;;
18228;SDS011;9239;50.932;3.142;2023-09-19T04:50:04;10.57;;;3.38;;
18228;SDS011;9239;50.932;3.142;2023-09-19T04:52:39;12.07;;;2.58;;
18228;SDS011;9239;50.932;3.142;2023-09-19T04:55:09;5.75;;;2.30;;
18228;SDS011;9239;50.932;3.142;2023-09-19T04:57:42;8.60;;;2.55;;
18228;SDS011;9239;50.932;3.142;2023-09-19T05:00:11;6.72;;;2.38;;
18228;SDS011;9239;50.932;3.142;2023-09-19T05:02:40;4.13;;;2.08;;
18228;SDS011;9239;50.932;3.142;2023-09-19T05:05:07;6.15;;;2.83;;
18228;SDS011;9239;50.932;3.142;2023-09-19T05:07:35;9.52;;;2.58;;
18228;SDS011;9239;50.932;3.142;2023-09-19T05:10:04;12.90;;;2.83;;
18228;SDS011;9239;50.932;3.142;2023-09-19T05:12:32;10.52;;;3.30;;
18228;SDS011;9239;50.932;3.142;2023-09-19T05:15:00;8.80;;;4.05;;
18228;SDS011;9239;50.932;3.142;2023-09-19T05:17:28;5.65;;;2.38;;
18228;SDS011;9239;50.932;3.142;2023-09-19T05:19:56;7.53;;;2.97;;
18228;SDS011;9239;50.932;3.142;2023-09-19T05:22:23;9.70;;;2.70;;
18228;SDS011;9239;50.932;3.142;2023-09-19T05:24:50;5.85;;;3.03;;
18228;SDS011;9239;50.932;3.142;2023-09-19T05:27:19;8.82;;;2.50;;
18228;SDS011;9239;50.932;3.142;2023-09-19T05:29:47;6.72;;;2.20;;
18228;SDS011;9239;50.932;3.142;2023-09-19T05:32:15;6.72;;;2.92;;
18228;SDS011;9239;50.932;3.142;2023-09-19T05:34:43;11.15;;;3.47;;
18228;SDS011;9239;50.932;3.142;2023-09-19T05:37:10;12.35;;;3.40;;
18228;SDS011;9239;50.932;3.142;2023-09-19T05:39:38;8.85;;;2.55;;
18228;SDS011;9239;50.932;3.142;2023-09-19T05:42:05;7.60;;;2.63;;
18228;SDS011;9239;50.932;3.142;2023-09-19T05:44:34;5.82;;;2.30;;
18228;SDS011;9239;50.932;3.142;2023-09-19T05:47:01;9.63;;;3.42;;
18228;SDS011;9239;50.932;3.142;2023-09-19T05:49:28;8.07;;;2.83;;
18228;SDS011;9239;50.932;3.142;2023-09-19T05:51:55;6.45;;;2.70;;
18228;SDS011;9239;50.932;3.142;2023-09-19T05:54:24;10.77;;;2.50;;
18228;SDS011;9239;50.932;3.142;2023-09-19T05:56:51;7.45;;;2.65;;
18228;SDS011;9239;50.932;3.142;2023-09-19T05:59:18;11.20;;;2.65;;
18228;SDS011;9239;50.932;3.142;2023-09-19T06:01:46;5.93;;;2.40;;
18228;SDS011;9239;50.932;3.142;2023-09-19T06:04:13;12.13;;;3.30;;
18228;SDS011;9239;50.932;3.142;2023-09-19T06:06:40;11.00;;;3.83;;
18228;SDS011;9239;50.932;3.142;2023-09-19T06:09:07;8.10;;;2.53;;
18228;SDS011;9239;50.932;3.142;2023-09-19T06:11:34;8.60;;;2.47;;
18228;SDS011;9239;50.932;3.142;2023-09-19T06:14:01;7.28;;;3.45;;
18228;SDS011;9239;50.932;3.142;2023-09-19T06:16:28;6.45;;;2.70;;
18228;SDS011;9239;50.932;3.142;2023-09-19T06:18:58;11.27;;;2.83;;
18228;SDS011;9239;50.932;3.142;2023-09-19T06:21:26;12.15;;;2.90;;
18228;SDS011;9239;50.932;3.142;2023-09-19T06:23:53;7.90;;;2.50;;
18228;SDS011;9239;50.932;3.142;2023-09-19T06:26:20;7.82;;;2.55;;
18228;SDS011;9239;50.932;3.142;2023-09-19T06:28:48;6.10;;;2.10;;
18228;SDS011;9239;50.932;3.142;2023-09-19T06:31:16;8.13;;;2.72;;
18228;SDS011;9239;50.932;3.142;2023-09-19T06:33:43;9.45;;;2.78;;
18228;SDS011;9239;50.932;3.142;2023-09-19T06:36:11;12.32;;;3.22;;
18228;SDS011;9239;50.932;3.142;2023-09-19T06:38:38;8.00;;;2.38;;
18228;SDS011;9239;50.932;3.142;2023-09-19T06:41:06;8.80;;;2.47;;
18228;SDS011;9239;50.932;3.142;2023-09-19T06:43:33;7.70;;;2.25;;
18228;SDS011;9239;50.932;3.142;2023-09-19T06:46:01;10.63;;;2.40;;
18228;SDS011;9239;50.932;3.142;2023-09-19T06:48:29;9.70;;;3.33;;
18228;SDS011;9239;50.932;3.142;2023-09-19T06:50:56;7.45;;;2.33;;
18228;SDS011;9239;50.932;3.142;2023-09-19T06:53:29;6.80;;;2.50;;
18228;SDS011;9239;50.932;3.142;2023-09-19T06:55:56;4.90;;;2.03;;
18228;SDS011;9239;50.932;3.142;2023-09-19T06:58:25;9.57;;;3.00;;
18228;SDS011;9239;50.932;3.142;2023-09-19T07:00:52;7.88;;;2.72;;
18228;SDS011;9239;50.932;3.142;2023-09-19T07:03:19;6.85;;;2.58;;
18228;SDS011;9239;50.932;3.142;2023-09-19T07:05:48;8.32;;;3.20;;
18228;SDS011;9239;50.932;3.142;2023-09-19T07:08:15;7.13;;;2.80;;
18228;SDS011;9239;50.932;3.142;2023-09-19T07:10:46;9.75;;;2.33;;
18228;SDS011;9239;50.932;3.142;2023-09-19T07:13:14;8.13;;;2.40;;
18228;SDS011;9239;50.932;3.142;2023-09-19T07:15:42;9.43;;;2.80;;
18228;SDS011;9239;50.932;3.142;2023-09-19T07:18:12;8.65;;;2.92;;
18228;SDS011;9239;50.932;3.142;2023-09-19T07:20:41;11.07;;;3.05;;
18228;SDS011;9239;50.932;3.142;2023-09-19T07:23:14;5.32;;;2.15;;
18228;SDS011;9239;50.932;3.142;2023-09-19T07:25:41;9.30;;;3.63;;
18228;SDS011;9239;50.932;3.142;2023-09-19T07:28:09;9.70;;;2.63;;
18228;SDS011;9239;50.932;3.142;2023-09-19T07:30:36;6.63;;;2.25;;
18228;SDS011;9239;50.932;3.142;2023-09-19T07:33:04;6.50;;;2.35;;
18228;SDS011;9239;50.932;3.142;2023-09-19T07:35:31;7.70;;;2.65;;
18228;SDS011;9239;50.932;3.142;2023-09-19T07:37:59;6.55;;;1.88;;
18228;SDS011;9239;50.932;3.142;2023-09-19T07:40:27;5.30;;;1.90;;
18228;SDS011;9239;50.932;3.142;2023-09-19T07:42:55;8.38;;;2.55;;
18228;SDS011;9239;50.932;3.142;2023-09-19T07:45:23;8.18;;;2.20;;
18228;SDS011;9239;50.932;3.142;2023-09-19T07:47:50;4.82;;;2.42;;
18228;SDS011;9239;50.932;3.142;2023-09-19T07:50:18;7.38;;;2.30;;
18228;SDS011;9239;50.932;3.142;2023-09-19T07:52:45;10.07;;;2.78;;
18228;SDS011;9239;50.932;3.142;2023-09-19T07:55:13;6.55;;;2.88;;
18228;SDS011;9239;50.932;3.142;2023-09-19T07:57:41;6.80;;;2.95;;
18228;SDS011;9239;50.932;3.142;2023-09-19T08:00:09;7.63;;;2.50;;
18228;SDS011;9239;50.932;3.142;2023-09-19T08:02:38;5.50;;;2.00;;
18228;SDS011;9239;50.932;3.142;2023-09-19T08:05:07;7.95;;;2.42;;
18228;SDS011;9239;50.932;3.142;2023-09-19T08:07:36;7.30;;;2.65;;
18228;SDS011;9239;50.932;3.142;2023-09-19T08:10:03;9.70;;;2.50;;
18228;SDS011;9239;50.932;3.142;2023-09-19T08:12:32;5.07;;;2.28;;
18228;SDS011;9239;50.932;3.142;2023-09-19T08:15:00;8.40;;;2.03;;
18228;SDS011;9239;50.932;3.142;2023-09-19T08:17:27;9.50;;;3.00;;
18228;SDS011;9239;50.932;3.142;2023-09-19T08:19:56;6.20;;;2.70;;
18228;SDS011;9239;50.932;3.142;2023-09-19T08:22:22;9.40;;;2.08;;
18228;SDS011;9239;50.932;3.142;2023-09-19T08:24:49;12.25;;;2.80;;
18228;SDS011;9239;50.932;3.142;2023-09-19T08:27:16;12.43;;;2.75;;
18228;SDS011;9239;50.932;3.142;2023-09-19T08:29:44;5.47;;;2.00;;
18228;SDS011;9239;50.932;3.142;2023-09-19T08:32:15;8.77;;;2.67;;
18228;SDS011;9239;50.932;3.142;2023-09-19T08:34:43;8.20;;;2.00;;
18228;SDS011;9239;50.932;3.142;2023-09-19T08:37:12;6.60;;;2.55;;
18228;SDS011;9239;50.932;3.142;2023-09-19T08:39:38;5.63;;;1.70;;
18228;SDS011;9239;50.932;3.142;2023-09-19T08:42:05;5.60;;;1.92;;
18228;SDS011;9239;50.932;3.142;2023-09-19T08:44:35;7.75;;;2.15;;
18228;SDS011;9239;50.932;3.142;2023-09-19T08:47:08;4.55;;;1.92;;
18228;SDS011;9239;50.932;3.142;2023-09-19T08:49:38;6.07;;;2.30;;
18228;SDS011;9239;50.932;3.142;2023-09-19T08:52:22;7.72;;;2.22;;
18228;SDS011;9239;50.932;3.142;2023-09-19T08:54:54;5.35;;;1.85;;
18228;SDS011;9239;50.932;3.142;2023-09-19T08:57:27;5.15;;;1.92;;
18228;SDS011;9239;50.932;3.142;2023-09-19T08:59:55;5.03;;;2.00;;
18228;SDS011;9239;50.932;3.142;2023-09-19T09:02:25;3.53;;;1.75;;
18228;SDS011;9239;50.932;3.142;2023-09-19T09:04:53;6.45;;;2.08;;
18228;SDS011;9239;50.932;3.142;2023-09-19T09:07:23;3.15;;;1.73;;
18228;SDS011;9239;50.932;3.142;2023-09-19T09:09:52;6.47;;;1.80;;
18228;SDS011;9239;50.932;3.142;2023-09-19T09:12:19;4.03;;;1.85;;
18228;SDS011;9239;50.932;3.142;2023-09-19T09:14:47;3.85;;;1.63;;
18228;SDS011;9239;50.932;3.142;2023-09-19T09:17:15;5.45;;;1.52;;
18228;SDS011;9239;50.932;3.142;2023-09-19T09:19:45;3.58;;;1.48;;
18228;SDS011;9239;50.932;3.142;2023-09-19T09:22:12;7.47;;;2.22;;
18228;SDS011;9239;50.932;3.142;2023-09-19T09:24:52;5.03;;;1.60;;
18228;SDS011;9239;50.932;3.142;2023-09-19T09:27:20;6.60;;;2.00;;
18228;SDS011;9239;50.932;3.142;2023-09-19T09:29:49;4.50;;;1.83;;
18228;SDS011;9239;50.932;3.142;2023-09-19T09:32:20;3.85;;;1.70;;
18228;SDS011;9239;50.932;3.142;2023-09-19T09:34:49;3.83;;;1.40;;
18228;SDS011;9239;50.932;3.142;2023-09-19T09:37:20;5.22;;;1.52;;
18228;SDS011;9239;50.932;3.142;2023-09-19T09:39:51;3.95;;;1.70;;
18228;SDS011;9239;50.932;3.142;2023-09-19T09:42:30;4.38;;;1.35;;
18228;SDS011;9239;50.932;3.142;2023-09-19T09:45:12;3.13;;;1.30;;
18228;SDS011;9239;50.932;3.142;2023-09-19T09:47:44;6.70;;;1.70;;
18228;SDS011;9239;50.932;3.142;2023-09-19T09:50:25;5.30;;;1.67;;
18228;SDS011;9239;50.932;3.142;2023-09-19T09:56:01;4.07;;;1.52;;
18228;SDS011;9239;50.932;3.142;2023-09-19T09:58:31;5.15;;;1.65;;
18228;SDS011;9239;50.932;3.142;2023-09-19T10:00:59;6.20;;;1.48;;
18228;SDS011;9239;50.932;3.142;2023-09-19T10:03:33;3.67;;;1.58;;
18228;SDS011;9239;50.932;3.142;2023-09-19T10:06:08;4.30;;;1.20;;
18228;SDS011;9239;50.932;3.142;2023-09-19T10:09:00;4.85;;;1.52;;
18228;SDS011;9239;50.932;3.142;2023-09-19T10:11:37;2.95;;;1.50;;
18228;SDS011;9239;50.932;3.142;2023-09-19T10:14:12;5.30;;;1.58;;
18228;SDS011;9239;50.932;3.142;2023-09-19T10:16:45;4.55;;;2.38;;
18228;SDS011;9239;50.932;3.142;2023-09-19T10:19:17;3.72;;;1.60;;
18228;SDS011;9239;50.932;3.142;2023-09-19T10:21:49;5.70;;;2.10;;
18228;SDS011;9239;50.932;3.142;2023-09-19T10:24:17;1.73;;;1.08;;
18228;SDS011;9239;50.932;3.142;2023-09-19T10:26:46;3.60;;;1.63;;
18228;SDS011;9239;50.932;3.142;2023-09-19T10:29:15;3.17;;;1.00;;
18228;SDS011;9239;50.932;3.142;2023-09-19T10:31:44;4.35;;;1.40;;
18228;SDS011;9239;50.932;3.142;2023-09-19T10:34:15;3.90;;;1.10;;
18228;SDS011;9239;50.932;3.142;2023-09-19T10:36:44;2.20;;;1.30;;
18228;SDS011;9239;50.932;3.142;2023-09-19T10:39:13;4.15;;;1.20;;
18228;SDS011;9239;50.932;3.142;2023-09-19T10:41:47;5.18;;;1.17;;
18228;SDS011;9239;50.932;3.142;2023-09-19T10:44:21;2.35;;;1.02;;
18228;SDS011;9239;50.932;3.142;2023-09-19T10:46:50;2.88;;;1.60;;
18228;SDS011;9239;50.932;3.142;2023-09-19T10:49:18;4.78;;;1.17;;
18228;SDS011;9239;50.932;3.142;2023-09-19T10:51:46;4.15;;;1.50;;
18228;SDS011;9239;50.932;3.142;2023-09-19T10:54:17;6.78;;;2.28;;
18228;SDS011;9239;50.932;3.142;2023-09-19T10:56:49;3.10;;;1.20;;
18228;SDS011;9239;50.932;3.142;2023-09-19T10:59:18;4.65;;;1.05;;
18228;SDS011;9239;50.932;3.142;2023-09-19T11:01:50;5.30;;;1.27;;
18228;SDS011;9239;50.932;3.142;2023-09-19T11:04:22;2.00;;;1.08;;
18228;SDS011;9239;50.932;3.142;2023-09-19T11:07:03;4.15;;;1.13;;
18228;SDS011;9239;50.932;3.142;2023-09-19T11:09:43;2.75;;;1.10;;
18228;SDS011;9239;50.932;3.142;2023-09-19T11:12:13;2.67;;;1.27;;
18228;SDS011;9239;50.932;3.142;2023-09-19T11:21:40;3.08;;;1.25;;
18228;SDS011;9239;50.932;3.142;2023-09-19T11:24:32;2.58;;;1.40;;
18228;SDS011;9239;50.932;3.142;2023-09-19T11:27:17;2.75;;;1.13;;
18228;SDS011;9239;50.932;3.142;2023-09-19T11:29:45;3.80;;;1.50;;
18228;SDS011;9239;50.932;3.142;2023-09-19T11:32:14;3.92;;;1.48;;
18228;SDS011;9239;50.932;3.142;2023-09-19T11:34:42;2.75;;;1.33;;
18228;SDS011;9239;50.932;3.142;2023-09-19T11:40:39;4.57;;;1.67;;
18228;SDS011;9239;50.932;3.142;2023-09-19T11:43:33;4.45;;;1.27;;
18228;SDS011;9239;50.932;3.142;2023-09-19T11:46:04;3.58;;;1.60;;
18228;SDS011;9239;50.932;3.142;2023-09-19T11:48:31;5.25;;;1.83;;
18228;SDS011;9239;50.932;3.142;2023-09-19T11:51:00;3.70;;;1.35;;
18228;SDS011;9239;50.932;3.142;2023-09-19T11:53:32;5.03;;;1.77;;
18228;SDS011;9239;50.932;3.142;2023-09-19T11:56:01;5.32;;;2.10;;
18228;SDS011;9239;50.932;3.142;2023-09-19T11:58:33;4.38;;;1.63;;
18228;SDS011;9239;50.932;3.142;2023-09-19T12:01:02;2.83;;;1.40;;
18228;SDS011;9239;50.932;3.142;2023-09-19T12:03:33;5.32;;;1.45;;
18228;SDS011;9239;50.932;3.142;2023-09-19T12:06:10;6.28;;;1.60;;
18228;SDS011;9239;50.932;3.142;2023-09-19T12:08:39;4.40;;;1.80;;
18228;SDS011;9239;50.932;3.142;2023-09-19T12:11:11;5.10;;;1.95;;
18228;SDS011;9239;50.932;3.142;2023-09-19T12:13:45;6.07;;;2.05;;
18228;SDS011;9239;50.932;3.142;2023-09-19T12:16:14;3.78;;;2.00;;
18228;SDS011;9239;50.932;3.142;2023-09-19T12:18:42;4.97;;;2.15;;
18228;SDS011;9239;50.932;3.142;2023-09-19T12:21:24;3.35;;;1.65;;
18228;SDS011;9239;50.932;3.142;2023-09-19T12:23:57;4.10;;;1.88;;
18228;SDS011;9239;50.932;3.142;2023-09-19T12:26:26;3.63;;;1.67;;
18228;SDS011;9239;50.932;3.142;2023-09-19T12:28:55;4.57;;;2.03;;
18228;SDS011;9239;50.932;3.142;2023-09-19T12:31:22;3.15;;;2.00;;
18228;SDS011;9239;50.932;3.142;2023-09-19T12:33:54;3.28;;;1.65;;
18228;SDS011;9239;50.932;3.142;2023-09-19T12:36:22;7.30;;;2.25;;
18228;SDS011;9239;50.932;3.142;2023-09-19T12:38:54;5.05;;;2.13;;
18228;SDS011;9239;50.932;3.142;2023-09-19T12:41:24;3.08;;;1.52;;
18228;SDS011;9239;50.932;3.142;2023-09-19T12:43:51;3.35;;;2.05;;
18228;SDS011;9239;50.932;3.142;2023-09-19T12:46:21;4.60;;;1.80;;
18228;SDS011;9239;50.932;3.142;2023-09-19T12:48:51;5.45;;;2.33;;
18228;SDS011;9239;50.932;3.142;2023-09-19T12:51:43;5.45;;;2.47;;
18228;SDS011;9239;50.932;3.142;2023-09-19T12:54:11;5.95;;;1.85;;
18228;SDS011;9239;50.932;3.142;2023-09-19T12:56:40;4.13;;;1.58;;
18228;SDS011;9239;50.932;3.142;2023-09-19T12:59:09;6.43;;;2.13;;
18228;SDS011;9239;50.932;3.142;2023-09-19T13:01:41;6.03;;;1.95;;
18228;SDS011;9239;50.932;3.142;2023-09-19T13:04:12;3.10;;;1.63;;
18228;SDS011;9239;50.932;3.142;2023-09-19T13:06:43;5.00;;;2.15;;
18228;SDS011;9239;50.932;3.142;2023-09-19T13:09:11;4.60;;;1.95;;
18228;SDS011;9239;50.932;3.142;2023-09-19T13:11:39;6.18;;;2.33;;
18228;SDS011;9239;50.932;3.142;2023-09-19T13:14:15;5.90;;;2.13;;
18228;SDS011;9239;50.932;3.142;2023-09-19T13:16:59;6.88;;;2.40;;
18228;SDS011;9239;50.932;3.142;2023-09-19T13:19:36;6.05;;;1.75;;
18228;SDS011;9239;50.932;3.142;2023-09-19T13:22:05;5.28;;;2.15;;
18228;SDS011;9239;50.932;3.142;2023-09-19T13:25:07;5.07;;;1.92;;
18228;SDS011;9239;50.932;3.142;2023-09-19T13:27:39;5.43;;;2.10;;
18228;SDS011;9239;50.932;3.142;2023-09-19T13:30:07;3.47;;;2.42;;
18228;SDS011;9239;50.932;3.142;2023-09-19T13:32:36;3.78;;;2.05;;
18228;SDS011;9239;50.932;3.142;2023-09-19T13:35:06;2.75;;;1.70;;
18228;SDS011;9239;50.932;3.142;2023-09-19T13:37:34;4.53;;;2.13;;
18228;SDS011;9239;50.932;3.142;2023-09-19T13:40:03;5.68;;;2.60;;
18228;SDS011;9239;50.932;3.142;2023-09-19T13:42:31;2.95;;;1.75;;
18228;SDS011;9239;50.932;3.142;2023-09-19T13:44:58;5.35;;;1.85;;
18228;SDS011;9239;50.932;3.142;2023-09-19T13:47:25;4.07;;;1.80;;
18228;SDS011;9239;50.932;3.142;2023-09-19T13:49:53;4.80;;;2.03;;
18228;SDS011;9239;50.932;3.142;2023-09-19T13:52:20;4.47;;;2.00;;
18228;SDS011;9239;50.932;3.142;2023-09-19T13:54:48;4.88;;;1.73;;
18228;SDS011;9239;50.932;3.142;2023-09-19T13:57:16;5.45;;;2.10;;
18228;SDS011;9239;50.932;3.142;2023-09-19T13:59:43;6.18;;;2.80;;
18228;SDS011;9239;50.932;3.142;2023-09-19T14:02:10;5.85;;;2.13;;
18228;SDS011;9239;50.932;3.142;2023-09-19T14:04:39;4.55;;;2.05;;
18228;SDS011;9239;50.932;3.142;2023-09-19T14:07:08;6.57;;;2.17;;
18228;SDS011;9239;50.932;3.142;2023-09-19T14:09:36;6.05;;;2.00;;
18228;SDS011;9239;50.932;3.142;2023-09-19T14:12:03;6.35;;;2.08;;
18228;SDS011;9239;50.932;3.142;2023-09-19T14:14:30;5.70;;;2.35;;
18228;SDS011;9239;50.932;3.142;2023-09-19T14:16:57;3.58;;;1.80;;
18228;SDS011;9239;50.932;3.142;2023-09-19T14:19:25;3.47;;;2.15;;
18228;SDS011;9239;50.932;3.142;2023-09-19T14:21:53;6.68;;;2.60;;
18228;SDS011;9239;50.932;3.142;2023-09-19T14:24:22;5.75;;;2.47;;
18228;SDS011;9239;50.932;3.142;2023-09-19T14:26:49;5.78;;;2.80;;
18228;SDS011;9239;50.932;3.142;2023-09-19T14:29:16;4.47;;;2.17;;
18228;SDS011;9239;50.932;3.142;2023-09-19T14:31:44;6.50;;;2.35;;
18228;SDS011;9239;50.932;3.142;2023-09-19T14:34:11;8.55;;;2.78;;
18228;SDS011;9239;50.932;3.142;2023-09-19T14:36:40;5.28;;;2.25;;
18228;SDS011;9239;50.932;3.142;2023-09-19T14:39:07;4.82;;;2.10;;
18228;SDS011;9239;50.932;3.142;2023-09-19T14:41:35;4.20;;;2.42;;
18228;SDS011;9239;50.932;3.142;2023-09-19T14:44:02;4.80;;;2.38;;
18228;SDS011;9239;50.932;3.142;2023-09-19T14:46:30;3.70;;;2.20;;
18228;SDS011;9239;50.932;3.142;2023-09-19T14:48:57;5.05;;;2.03;;
18228;SDS011;9239;50.932;3.142;2023-09-19T14:51:25;7.00;;;3.25;;
18228;SDS011;9239;50.932;3.142;2023-09-19T14:53:52;3.90;;;2.38;;
18228;SDS011;9239;50.932;3.142;2023-09-19T14:56:19;8.48;;;2.60;;
18228;SDS011;9239;50.932;3.142;2023-09-19T14:58:50;7.60;;;2.70;;
18228;SDS011;9239;50.932;3.142;2023-09-19T15:01:17;6.03;;;2.75;;
18228;SDS011;9239;50.932;3.142;2023-09-19T15:03:44;6.25;;;2.63;;
18228;SDS011;9239;50.932;3.142;2023-09-19T15:06:13;10.82;;;2.70;;
18228;SDS011;9239;50.932;3.142;2023-09-19T15:08:42;5.63;;;2.88;;
18228;SDS011;9239;50.932;3.142;2023-09-19T15:11:12;6.20;;;3.13;;
18228;SDS011;9239;50.932;3.142;2023-09-19T15:13:41;7.35;;;3.40;;
18228;SDS011;9239;50.932;3.142;2023-09-19T15:16:12;8.68;;;3.92;;
18228;SDS011;9239;50.932;3.142;2023-09-19T15:18:40;8.02;;;3.40;;
18228;SDS011;9239;50.932;3.142;2023-09-19T15:21:09;6.93;;;3.08;;
18228;SDS011;9239;50.932;3.142;2023-09-19T15:23:38;5.82;;;2.80;;
18228;SDS011;9239;50.932;3.142;2023-09-19T15:26:06;7.32;;;2.80;;
18228;SDS011;9239;50.932;3.142;2023-09-19T15:28:34;5.93;;;2.97;;